createdAt,value
2019-04-28T00:01:51.992Z,6.00
2019-04-28T00:04:23.702Z,6.20
2019-04-28T00:06:54.937Z,1.20
2019-04-28T00:09:24.400Z,4.00
2019-04-28T00:11:54.746Z,7.00
2019-04-28T00:14:27.215Z,3.00
2019-04-28T00:16:56.943Z,3.00
2019-04-28T00:19:27.550Z,4.40
2019-04-28T00:22:21.621Z,4.80
2019-04-28T00:25:01.644Z,3.00
2019-04-28T00:27:31.656Z,3.80
2019-04-28T00:30:02.373Z,3.80
2019-04-28T00:32:32.728Z,8.80
2019-04-28T00:35:02.509Z,3.80
2019-04-28T00:37:35.022Z,3.80
2019-04-28T00:40:05.353Z,7.00
2019-04-28T00:42:35.051Z,1.00
2019-04-28T00:45:06.193Z,3.00
2019-04-28T00:47:35.602Z,1.00
2019-04-28T00:50:07.156Z,6.00
2019-04-28T00:52:36.654Z,4.80
2019-04-28T00:55:06.504Z,6.00
2019-04-28T00:57:36.041Z,2.20
2019-04-28T01:00:06.060Z,4.80
2019-04-28T01:02:43.371Z,3.40
2019-04-28T01:05:12.977Z,3.20
2019-04-28T01:07:42.438Z,4.00
2019-04-28T01:10:13.730Z,3.00
2019-04-28T01:12:46.360Z,7.20
2019-04-28T01:15:40.662Z,1.40
2019-04-28T01:18:37.981Z,4.40
2019-04-28T01:21:10.717Z,1.40
2019-04-28T01:23:40.843Z,3.60
2019-04-28T01:26:12.432Z,3.00
2019-04-28T01:28:44.148Z,5.80
2019-04-28T01:31:32.981Z,3.20
2019-04-28T01:34:22.100Z,6.00
2019-04-28T01:36:52.189Z,6.20
2019-04-28T01:39:22.107Z,1.80
2019-04-28T01:41:52.117Z,3.20
2019-04-28T01:44:23.373Z,4.00
2019-04-28T01:46:53.277Z,2.80
2019-04-28T01:49:22.776Z,6.00
2019-04-28T01:52:00.873Z,2.20
2019-04-28T01:54:30.543Z,3.00
2019-04-28T01:57:01.358Z,2.80
2019-04-28T01:59:33.086Z,5.60
2019-04-28T02:02:04.905Z,1.00
2019-04-28T02:04:34.613Z,2.20
2019-04-28T02:07:07.656Z,4.00
2019-04-28T02:09:37.045Z,1.00
2019-04-28T02:12:06.575Z,1.00
2019-04-28T02:14:36.201Z,1.00
2019-04-28T02:17:06.493Z,5.60
2019-04-28T02:19:36.286Z,2.60
2019-04-28T02:22:13.031Z,3.60
2019-04-28T02:24:42.907Z,3.00
2019-04-28T02:27:12.481Z,3.20
2019-04-28T02:29:42.185Z,3.00
2019-04-28T02:32:13.062Z,3.60
2019-04-28T02:34:42.763Z,3.00
2019-04-28T02:37:12.584Z,4.40
2019-04-28T02:39:42.188Z,3.20
2019-04-28T02:42:11.918Z,4.60
2019-04-28T02:44:42.047Z,4.00
2019-04-28T02:47:11.968Z,0.20
2019-04-28T02:49:56.350Z,7.00
2019-04-28T02:52:43.864Z,2.60
2019-04-28T02:55:14.700Z,6.80
2019-04-28T02:57:44.326Z,2.20
2019-04-28T03:00:14.415Z,1.00
2019-04-28T03:02:43.975Z,5.20
2019-04-28T03:05:13.744Z,3.60
2019-04-28T03:07:43.476Z,4.80
2019-04-28T03:10:13.271Z,2.20
2019-04-28T03:12:42.897Z,3.00
2019-04-28T03:15:13.200Z,6.00
2019-04-28T03:17:42.956Z,1.40
2019-04-28T03:20:12.722Z,4.40
2019-04-28T03:22:42.394Z,1.80
2019-04-28T03:25:20.416Z,0.80
2019-04-28T03:28:25.058Z,2.60
2019-04-28T03:31:50.831Z,1.00
2019-04-28T03:33:55.334Z,2.60
2019-04-28T03:36:24.994Z,1.00
2019-04-28T03:38:55.447Z,2.20
2019-04-28T03:41:25.496Z,2.60
2019-04-28T03:43:55.092Z,3.80
2019-04-28T03:46:30.204Z,3.60
2019-04-28T03:49:00.790Z,3.80
2019-04-28T03:51:31.117Z,1.40
2019-04-28T03:54:02.921Z,1.00
2019-04-28T03:56:32.539Z,3.20
2019-04-28T03:59:02.218Z,2.60
2019-04-28T04:01:31.797Z,1.00
2019-04-28T04:04:03.547Z,4.00
2019-04-28T04:06:32.775Z,3.00
2019-04-28T04:09:02.346Z,3.00
2019-04-28T04:11:41.245Z,2.20
2019-04-28T04:14:23.124Z,3.60
2019-04-28T04:17:01.304Z,4.00
2019-04-28T04:19:34.265Z,0.60
2019-04-28T04:22:03.913Z,1.40
2019-04-28T04:24:33.573Z,2.60
2019-04-28T04:27:03.383Z,1.00
2019-04-28T04:29:33.091Z,4.80
2019-04-28T04:32:15.538Z,1.80
2019-04-28T04:34:34.269Z,1.00
2019-04-28T04:37:03.865Z,1.80
2019-04-28T04:39:33.908Z,3.00
2019-04-28T04:42:03.628Z,3.00
2019-04-28T04:44:33.236Z,3.60
2019-04-28T04:47:03.521Z,4.00
2019-04-28T04:49:33.166Z,1.00
2019-04-28T04:52:03.202Z,3.00
2019-04-28T04:54:36.487Z,4.40
2019-04-28T04:57:04.386Z,4.40
2019-04-28T04:59:36.780Z,3.60
2019-04-28T05:02:29.702Z,4.40
2019-04-28T05:05:00.426Z,3.00
2019-04-28T05:07:30.223Z,1.00
2019-04-28T05:10:01.651Z,3.20
2019-04-28T05:12:31.209Z,1.00
2019-04-28T05:15:01.315Z,7.40
2019-04-28T05:17:30.986Z,3.40
2019-04-28T05:20:01.385Z,0.00
2019-04-28T05:22:34.367Z,5.20
2019-04-28T05:25:14.958Z,1.00
2019-04-28T05:27:45.194Z,3.00
2019-04-28T05:30:15.354Z,3.00
2019-04-28T05:32:49.816Z,4.00
2019-04-28T05:35:17.544Z,3.20
2019-04-28T05:37:49.431Z,5.40
2019-04-28T05:40:20.566Z,1.00
2019-04-28T05:43:00.929Z,2.60
2019-04-28T05:45:32.225Z,1.00
2019-04-28T05:48:02.765Z,3.60
2019-04-28T05:50:40.523Z,5.00
2019-04-28T05:53:26.639Z,5.40
2019-04-28T05:56:05.414Z,1.00
2019-04-28T05:58:40.771Z,6.20
2019-04-28T06:01:23.454Z,1.40
2019-04-28T06:03:53.401Z,4.00
2019-04-28T06:06:25.901Z,3.80
2019-04-28T06:09:20.372Z,3.00
2019-04-28T06:11:50.372Z,0.80
2019-04-28T06:14:20.487Z,3.40
2019-04-28T06:16:50.663Z,3.00
2019-04-28T06:19:20.424Z,3.00
2019-04-28T06:21:50.104Z,6.00
2019-04-28T06:24:20.027Z,3.00
2019-04-28T06:26:50.074Z,3.00
2019-04-28T06:29:19.899Z,3.20
2019-04-28T06:31:49.757Z,6.40
2019-04-28T06:34:19.455Z,3.80
2019-04-28T06:36:49.689Z,6.00
2019-04-28T06:39:19.911Z,8.60
2019-04-28T06:41:49.722Z,6.60
2019-04-28T06:44:19.454Z,7.00
2019-04-28T06:46:49.590Z,5.20
2019-04-28T06:51:56.698Z,10.60
2019-04-28T06:54:27.094Z,7.80
2019-04-28T06:56:59.450Z,9.20
2019-04-28T06:59:29.581Z,7.00
2019-04-28T07:01:59.210Z,6.60
2019-04-28T07:04:29.227Z,8.40
2019-04-28T07:06:59.095Z,7.00
2019-04-28T07:09:29.029Z,4.00
2019-04-28T07:11:58.771Z,7.40
2019-04-28T07:14:29.068Z,4.20
2019-04-28T07:16:58.835Z,5.00
2019-04-28T07:19:28.453Z,5.00
2019-04-28T07:22:12.308Z,3.80
2019-04-28T07:24:44.793Z,5.20
2019-04-28T07:27:13.870Z,2.20
2019-04-28T07:29:43.726Z,4.80
2019-04-28T07:32:13.484Z,3.00
2019-04-28T07:34:43.068Z,3.40
2019-04-28T07:37:12.549Z,4.00
2019-04-28T07:39:42.442Z,3.00
2019-04-28T07:42:12.093Z,3.40
2019-04-28T07:44:41.869Z,1.80
2019-04-28T07:47:11.689Z,2.20
2019-04-28T07:49:41.558Z,3.00
2019-04-28T07:56:58.336Z,3.00
2019-04-28T07:59:28.037Z,3.00
2019-04-28T08:01:58.015Z,3.00
2019-04-28T08:04:28.537Z,3.60
2019-04-28T08:06:58.395Z,4.20
2019-04-28T08:09:28.138Z,1.80
2019-04-28T08:11:57.906Z,3.00
2019-04-28T08:14:28.022Z,5.60
2019-04-28T08:16:57.716Z,6.00
2019-04-28T08:19:27.381Z,4.80
2019-04-28T08:21:58.974Z,4.00
2019-04-28T08:24:29.003Z,3.00
2019-04-28T08:27:00.730Z,4.80
2019-04-28T08:29:30.182Z,4.00
2019-04-28T08:32:11.328Z,6.80
2019-04-28T08:34:43.177Z,7.40
2019-04-28T08:37:12.843Z,6.80
2019-04-28T08:39:43.919Z,8.60
2019-04-28T08:42:13.740Z,9.00
2019-04-28T08:44:44.500Z,8.20
2019-04-28T08:47:14.212Z,10.40
2019-04-28T08:49:47.661Z,9.40
2019-04-28T08:52:17.346Z,9.60
2019-04-28T08:54:48.585Z,8.80
2019-04-28T08:57:22.508Z,3.20
2019-04-28T08:59:53.656Z,10.40
2019-04-28T09:02:23.427Z,9.60
2019-04-28T09:04:54.290Z,7.80
2019-04-28T09:07:26.596Z,7.80
2019-04-28T09:09:56.337Z,11.60
2019-04-28T09:12:26.496Z,6.60
2019-04-28T09:14:56.066Z,6.80
2019-04-28T09:17:27.831Z,6.40
2019-04-28T09:19:57.812Z,4.00
2019-04-28T09:22:27.562Z,6.40
2019-04-28T09:24:57.387Z,8.40
2019-04-28T09:27:27.800Z,10.00
2019-04-28T09:29:57.484Z,5.20
2019-04-28T09:32:28.330Z,3.00
2019-04-28T09:34:58.285Z,9.40
2019-04-28T09:37:28.231Z,7.20
2019-04-28T09:40:11.156Z,6.00
2019-04-28T09:43:08.440Z,7.00
2019-04-28T09:45:48.132Z,7.00
2019-04-28T09:48:17.986Z,6.60
2019-04-28T09:50:47.727Z,9.40
2019-04-28T09:53:17.326Z,7.00
2019-04-28T09:55:47.218Z,6.20
2019-04-28T09:58:17.436Z,5.60
2019-04-28T10:00:47.939Z,7.80
2019-04-28T10:03:18.298Z,7.00
2019-04-28T10:05:49.089Z,6.60
2019-04-28T10:08:19.455Z,10.80
2019-04-28T10:10:48.914Z,10.80
2019-04-28T10:13:20.143Z,8.80
2019-04-28T10:15:50.762Z,9.00
2019-04-28T10:18:20.342Z,9.00
2019-04-28T10:20:52.093Z,9.20
2019-04-28T10:23:25.319Z,8.20
2019-04-28T10:25:54.875Z,9.00
2019-04-28T10:28:24.650Z,10.40
2019-04-28T10:30:54.259Z,15.20
2019-04-28T10:33:23.794Z,11.80
2019-04-28T10:35:53.314Z,15.00
2019-04-28T10:38:28.180Z,14.20
2019-04-28T10:41:06.764Z,10.00
2019-04-28T10:43:37.001Z,12.00
2019-04-28T10:46:07.146Z,11.20
2019-04-28T10:48:37.159Z,13.80
2019-04-28T10:51:07.148Z,18.60
2019-04-28T10:53:37.309Z,12.80
2019-04-28T10:56:07.317Z,13.00
2019-04-28T10:58:37.539Z,9.80
2019-04-28T11:01:07.148Z,11.60
2019-04-28T11:03:37.121Z,8.60
2019-04-28T11:06:06.721Z,9.20
2019-04-28T11:08:53.777Z,6.00
2019-04-28T11:11:28.549Z,7.00
2019-04-28T11:13:58.127Z,5.60
2019-04-28T11:16:34.719Z,18.80
2019-04-28T11:19:04.435Z,7.40
2019-04-28T11:21:34.820Z,7.80
2019-04-28T11:24:04.830Z,6.00
2019-04-28T11:26:34.704Z,4.00
2019-04-28T11:29:07.568Z,6.00
2019-04-28T11:31:37.547Z,5.00
2019-04-28T11:34:19.566Z,6.60
2019-04-28T11:36:49.203Z,2.60
2019-04-28T11:39:26.208Z,4.00
2019-04-28T11:41:55.960Z,1.80
2019-04-28T11:44:25.603Z,3.40
2019-04-28T11:46:55.548Z,3.20
2019-04-28T11:49:25.466Z,2.60
2019-04-28T11:51:59.120Z,4.00
2019-04-28T11:54:35.546Z,4.40
2019-04-28T11:57:05.830Z,4.00
2019-04-28T11:59:35.743Z,3.00
2019-04-28T12:02:06.209Z,4.00
2019-04-28T12:04:38.645Z,3.00
2019-04-28T12:07:09.235Z,1.40
2019-04-28T12:10:05.867Z,3.00
2019-04-28T12:12:47.747Z,2.60
2019-04-28T12:15:39.670Z,4.00
2019-04-28T12:18:23.093Z,3.80
2019-04-28T12:20:52.826Z,3.40
2019-04-28T12:23:23.370Z,4.00
2019-04-28T12:25:53.232Z,2.60
2019-04-28T12:28:23.172Z,2.60
2019-04-28T12:30:53.018Z,3.00
2019-04-28T12:33:25.574Z,4.40
2019-04-28T12:35:58.954Z,6.20
2019-04-28T12:38:32.612Z,3.00
2019-04-28T12:41:05.435Z,4.00
2019-04-28T12:43:35.992Z,4.80
2019-04-28T12:46:05.624Z,3.00
2019-04-28T12:48:35.413Z,1.00
2019-04-28T12:51:05.209Z,3.40
2019-04-28T12:53:36.134Z,3.40
2019-04-28T12:56:07.499Z,4.80
2019-04-28T12:58:37.597Z,3.00
2019-04-28T13:01:17.880Z,3.00
2019-04-28T13:03:57.192Z,4.80
2019-04-28T13:06:26.752Z,3.00
2019-04-28T13:08:58.453Z,2.20
2019-04-28T13:11:28.848Z,1.00
2019-04-28T13:13:58.837Z,1.00
2019-04-28T13:16:28.914Z,1.00
2019-04-28T13:18:58.772Z,1.00
2019-04-28T13:21:28.586Z,3.80
2019-04-28T13:23:58.681Z,2.20
2019-04-28T13:26:28.140Z,3.00
2019-04-28T13:28:58.090Z,3.00
2019-04-28T13:31:27.766Z,3.20
2019-04-28T13:34:01.462Z,1.00
2019-04-28T13:36:31.134Z,3.00
2019-04-28T13:39:02.689Z,1.00
2019-04-28T13:41:32.163Z,3.00
2019-04-28T13:44:03.285Z,3.00
2019-04-28T13:46:33.345Z,3.00
2019-04-28T13:49:04.929Z,4.40
2019-04-28T13:51:34.924Z,3.80
2019-04-28T13:54:08.098Z,3.40
2019-04-28T13:56:37.431Z,1.00
2019-04-28T13:59:15.360Z,3.00
2019-04-28T14:02:07.158Z,1.00
2019-04-28T14:04:46.125Z,3.00
2019-04-28T14:07:19.108Z,1.00
2019-04-28T14:09:52.083Z,0.80
2019-04-28T14:12:21.709Z,2.60
2019-04-28T14:14:51.254Z,0.40
2019-04-28T14:17:20.790Z,1.80
2019-04-28T14:19:50.462Z,3.40
2019-04-28T14:22:20.391Z,1.40
2019-04-28T14:24:50.352Z,1.00
2019-04-28T14:27:21.527Z,1.00
2019-04-28T14:29:51.737Z,0.60
2019-04-28T14:32:21.468Z,0.80
2019-04-28T14:34:51.395Z,0.60
2019-04-28T14:37:21.580Z,2.20
2019-04-28T14:39:51.244Z,1.40
2019-04-28T14:42:23.292Z,2.20
2019-04-28T14:44:53.246Z,1.00
2019-04-28T14:47:22.977Z,6.00
2019-04-28T14:49:52.742Z,1.00
2019-04-28T14:52:22.317Z,3.00
2019-04-28T14:54:52.154Z,3.00
2019-04-28T14:57:21.943Z,0.80
2019-04-28T14:59:51.626Z,1.00
2019-04-28T15:02:31.797Z,2.20
2019-04-28T15:05:23.306Z,1.40
2019-04-28T15:08:21.699Z,1.00
2019-04-28T15:11:14.764Z,1.80
2019-04-28T15:13:48.204Z,3.00
2019-04-28T15:16:18.116Z,1.00
2019-04-28T15:18:52.142Z,0.80
2019-04-28T15:21:27.285Z,2.60
2019-04-28T15:23:57.137Z,1.40
2019-04-28T15:26:28.053Z,3.00
2019-04-28T15:28:57.650Z,2.60
2019-04-28T15:31:28.426Z,2.20
2019-04-28T15:33:59.503Z,3.40
2019-04-28T15:36:29.625Z,1.00
2019-04-28T15:39:03.255Z,2.60
2019-04-28T15:41:33.495Z,1.00
2019-04-28T15:44:03.348Z,0.80
2019-04-28T15:46:33.042Z,0.40
2019-04-28T15:49:02.513Z,1.00
2019-04-28T15:51:32.160Z,1.00
2019-04-28T15:54:01.736Z,3.00
2019-04-28T15:56:50.549Z,3.00
2019-04-28T15:59:22.637Z,2.20
2019-04-28T16:01:52.523Z,3.00
2019-04-28T16:04:25.982Z,1.00
2019-04-28T16:06:56.414Z,3.00
2019-04-28T16:09:26.586Z,1.00
2019-04-28T16:11:58.958Z,1.00
2019-04-28T16:14:36.293Z,0.80
2019-04-28T16:17:06.355Z,2.20
2019-04-28T16:19:36.129Z,0.00
2019-04-28T16:22:06.032Z,1.00
2019-04-28T16:24:36.598Z,1.00
2019-04-28T16:27:10.617Z,1.00
2019-04-28T16:29:40.513Z,0.00
2019-04-28T16:32:10.718Z,1.80
2019-04-28T16:34:40.189Z,0.80
2019-04-28T16:37:10.172Z,3.00
2019-04-28T16:39:40.397Z,0.60
2019-04-28T16:42:13.927Z,3.60
2019-04-28T16:44:49.738Z,1.80
2019-04-28T16:47:19.249Z,3.00
2019-04-28T16:49:48.843Z,0.80
2019-04-28T16:52:19.039Z,1.00
2019-04-28T16:54:50.317Z,0.80
2019-04-28T16:57:38.198Z,1.00
2019-04-28T17:00:19.722Z,0.60
2019-04-28T17:02:51.810Z,1.00
2019-04-28T17:05:22.431Z,1.00
2019-04-28T17:07:59.253Z,0.00
2019-04-28T17:10:29.010Z,1.00
2019-04-28T17:12:58.821Z,2.60
2019-04-28T17:15:30.298Z,1.00
2019-04-28T17:18:03.114Z,0.00
2019-04-28T17:20:32.580Z,1.00
2019-04-28T17:23:02.463Z,0.00
2019-04-28T17:25:32.624Z,0.80
2019-04-28T17:28:05.708Z,1.00
2019-04-28T17:30:35.598Z,1.00
2019-04-28T17:33:05.527Z,0.80
2019-04-28T17:35:38.310Z,1.00
2019-04-28T17:38:08.396Z,3.00
2019-04-28T17:40:38.376Z,3.00
2019-04-28T17:43:11.725Z,0.80
2019-04-28T17:45:41.396Z,3.40
2019-04-28T17:48:19.908Z,1.00
2019-04-28T17:50:51.365Z,4.00
2019-04-28T17:53:21.030Z,2.60
2019-04-28T17:55:52.571Z,10.00
2019-04-28T18:01:24.479Z,16.00
2019-04-28T18:04:19.712Z,8.20
2019-04-28T18:06:56.207Z,10.80
2019-04-28T18:09:26.174Z,3.60
2019-04-28T18:11:56.193Z,7.00
2019-04-28T18:14:29.449Z,4.80
2019-04-28T18:17:31.949Z,15.40
2019-04-28T18:20:01.827Z,15.00
2019-04-28T18:22:32.159Z,9.80
2019-04-28T18:25:02.174Z,4.00
2019-04-28T18:27:32.114Z,6.00
2019-04-28T18:30:05.079Z,4.00
2019-04-28T18:32:56.824Z,4.20
2019-04-28T18:35:33.769Z,4.00
2019-04-28T18:38:34.420Z,4.00
2019-04-28T18:41:13.244Z,4.00
2019-04-28T18:44:17.144Z,9.00
2019-04-28T18:46:48.206Z,6.00
2019-04-28T18:49:18.145Z,3.20
2019-04-28T18:51:50.022Z,6.00
2019-04-28T18:54:21.162Z,4.00
2019-04-28T18:56:51.215Z,4.00
2019-04-28T18:59:20.791Z,4.80
2019-04-28T19:02:19.917Z,6.20
2019-04-28T19:04:50.039Z,3.00
2019-04-28T19:07:29.233Z,5.60
2019-04-28T19:10:14.985Z,5.20
2019-04-28T19:13:00.528Z,6.00
2019-04-28T19:15:48.140Z,6.00
2019-04-28T19:18:24.337Z,7.00
2019-04-28T19:20:54.432Z,6.60
2019-04-28T19:23:24.490Z,3.00
2019-04-28T19:25:54.931Z,6.00
2019-04-28T19:28:24.978Z,3.40
2019-04-28T19:30:54.835Z,6.40
2019-04-28T19:33:24.716Z,6.80
2019-04-28T19:35:54.665Z,6.80
2019-04-28T19:38:24.691Z,4.40
2019-04-28T19:40:54.666Z,6.80
2019-04-28T19:43:26.752Z,10.40
2019-04-28T19:45:58.640Z,12.40
2019-04-28T19:48:31.675Z,13.20
2019-04-28T19:51:03.441Z,7.80
2019-04-28T19:53:34.125Z,7.00
2019-04-28T19:56:12.704Z,6.40
2019-04-28T19:58:46.691Z,4.40
2019-04-28T20:01:35.133Z,5.60
2019-04-28T20:04:05.147Z,4.40
2019-04-28T20:06:35.010Z,4.40
2019-04-28T20:09:06.349Z,9.00
2019-04-28T20:11:36.635Z,4.00
2019-04-28T20:14:09.228Z,4.00
2019-04-28T20:16:39.114Z,5.20
2019-04-28T20:19:08.796Z,4.80
2019-04-28T20:21:38.489Z,5.60
2019-04-28T20:24:08.647Z,6.00
2019-04-28T20:26:38.128Z,4.40
2019-04-28T20:29:08.337Z,4.00
2019-04-28T20:31:38.312Z,5.20
2019-04-28T20:34:14.465Z,3.80
2019-04-28T20:36:56.462Z,3.80
2019-04-28T20:39:31.130Z,6.20
2019-04-28T20:42:18.857Z,6.60
2019-04-28T20:44:51.095Z,5.60
2019-04-28T20:47:20.838Z,4.00
2019-04-28T20:49:52.607Z,7.80
2019-04-28T20:52:22.156Z,6.20
2019-04-28T20:54:54.734Z,6.00
2019-04-28T20:57:24.609Z,7.80
2019-04-28T20:59:58.659Z,6.60
2019-04-28T21:02:32.539Z,1.00
2019-04-28T21:05:02.334Z,1.80
2019-04-28T21:07:32.435Z,7.00
2019-04-28T21:10:04.978Z,6.00
2019-04-28T21:12:34.846Z,5.20
2019-04-28T21:15:05.447Z,6.60
2019-04-28T21:17:35.470Z,9.60
2019-04-28T21:20:05.851Z,9.00
2019-04-28T21:22:35.780Z,7.80
2019-04-28T21:25:06.219Z,7.80
2019-04-28T21:27:35.998Z,7.40
2019-04-28T21:30:05.928Z,6.80
2019-04-28T21:32:35.776Z,8.20
2019-04-28T21:35:05.595Z,7.00
2019-04-28T21:37:36.698Z,8.80
2019-04-28T21:40:06.591Z,9.00
2019-04-28T21:42:55.979Z,11.20
2019-04-28T21:45:43.191Z,11.40
2019-04-28T21:48:15.030Z,12.00
2019-04-28T21:50:44.791Z,11.60
2019-04-28T21:53:14.882Z,12.60
2019-04-28T21:55:44.969Z,11.20
2019-04-28T21:58:14.921Z,13.00
2019-04-28T22:00:51.578Z,14.60
2019-04-28T22:03:22.149Z,14.80
2019-04-28T22:05:51.907Z,11.00
2019-04-28T22:08:22.219Z,10.40
2019-04-28T22:10:52.165Z,13.00
2019-04-28T22:13:21.907Z,19.80
2019-04-28T22:15:51.750Z,21.80
2019-04-28T22:18:21.506Z,24.60
2019-04-28T22:20:51.488Z,22.80
2019-04-28T22:23:27.546Z,19.00
2019-04-28T22:25:57.404Z,19.00
2019-04-28T22:28:27.170Z,19.40
2019-04-28T22:30:56.885Z,11.20
2019-04-28T22:33:26.707Z,3.00
2019-04-28T22:35:56.387Z,14.00
2019-04-28T22:38:26.224Z,6.80
2019-04-28T22:40:56.371Z,9.00
2019-04-28T22:43:26.241Z,7.80
2019-04-28T22:45:56.388Z,7.00
2019-04-28T22:48:26.637Z,10.20
2019-04-28T22:50:57.047Z,11.60
2019-04-28T22:53:33.341Z,9.40
2019-04-28T22:56:11.353Z,9.20
2019-04-28T22:58:46.845Z,10.40
2019-04-28T23:01:27.554Z,9.60
2019-04-28T23:04:15.199Z,12.00
2019-04-28T23:06:45.191Z,9.20
2019-04-28T23:09:17.367Z,11.40
2019-04-28T23:11:47.060Z,12.20
2019-04-28T23:14:17.081Z,10.00
2019-04-28T23:16:46.887Z,7.00
2019-04-28T23:19:18.400Z,13.80
2019-04-28T23:22:03.227Z,12.00
2019-04-28T23:24:32.891Z,8.40
2019-04-28T23:27:02.852Z,10.00
2019-04-28T23:29:32.433Z,9.60
2019-04-28T23:32:03.192Z,9.40
2019-04-28T23:34:33.303Z,9.40
2019-04-28T23:37:02.874Z,9.60
2019-04-28T23:39:32.737Z,9.40
2019-04-28T23:42:36.839Z,12.20
2019-04-28T23:45:07.668Z,9.20
2019-04-28T23:47:37.382Z,9.00
2019-04-28T23:50:08.832Z,12.60
2019-04-28T23:53:00.405Z,7.00
2019-04-28T23:58:10.045Z,24.00
